createdAt,value
2019-04-04T00:00:55.365Z,1.60
2019-04-04T00:03:23.811Z,1.60
2019-04-04T00:05:52.228Z,1.50
2019-04-04T00:08:20.679Z,1.60
2019-04-04T00:10:49.556Z,1.50
2019-04-04T00:13:17.982Z,1.67
2019-04-04T00:15:46.407Z,1.67
2019-04-04T00:18:14.841Z,1.70
2019-04-04T00:20:43.335Z,2.10
2019-04-04T00:23:11.742Z,1.87
2019-04-04T00:25:40.428Z,2.20
2019-04-04T00:28:09.355Z,1.77
2019-04-04T00:30:37.781Z,1.70
2019-04-04T00:33:06.206Z,1.90
2019-04-04T00:35:34.639Z,2.20
2019-04-04T00:38:03.059Z,1.70
2019-04-04T00:40:31.575Z,1.50
2019-04-04T00:42:59.979Z,1.60
2019-04-04T00:45:29.029Z,1.73
2019-04-04T00:47:57.910Z,1.57
2019-04-04T00:50:26.317Z,1.60
2019-04-04T00:52:54.777Z,1.50
2019-04-04T00:55:23.185Z,1.53
2019-04-04T00:57:51.635Z,1.50
2019-04-04T01:00:20.044Z,1.77
2019-04-04T01:02:48.469Z,1.50
2019-04-04T01:05:16.911Z,1.30
2019-04-04T01:07:54.367Z,1.10
2019-04-04T01:10:22.782Z,1.30
2019-04-04T01:12:52.108Z,1.40
2019-04-04T01:15:21.211Z,1.50
2019-04-04T01:17:50.082Z,1.70
2019-04-04T01:20:20.427Z,1.27
2019-04-04T01:22:49.263Z,1.50
2019-04-04T01:25:17.697Z,1.50
2019-04-04T01:27:46.102Z,1.40
2019-04-04T01:30:14.592Z,1.30
2019-04-04T01:32:43.032Z,1.30
2019-04-04T01:35:13.428Z,1.43
2019-04-04T01:37:41.831Z,1.53
2019-04-04T01:40:10.814Z,1.60
2019-04-04T01:42:39.306Z,1.10
2019-04-04T01:45:08.842Z,1.50
2019-04-04T01:47:37.255Z,1.60
2019-04-04T01:50:06.846Z,1.97
2019-04-04T01:52:35.255Z,1.80
2019-04-04T01:55:04.506Z,2.00
2019-04-04T01:57:32.917Z,1.60
2019-04-04T02:00:01.360Z,1.67
2019-04-04T02:02:29.912Z,1.77
2019-04-04T02:04:58.331Z,1.60
2019-04-04T02:07:27.855Z,1.30
2019-04-04T02:09:56.861Z,1.20
2019-04-04T02:12:25.277Z,1.40
2019-04-04T02:14:53.716Z,1.10
2019-04-04T02:17:22.764Z,2.13
2019-04-04T02:19:51.310Z,1.60
2019-04-04T02:22:19.782Z,1.40
2019-04-04T02:24:48.214Z,1.50
2019-04-04T02:27:16.636Z,1.50
2019-04-04T02:29:45.052Z,1.50
2019-04-04T02:32:15.201Z,1.67
2019-04-04T02:34:43.615Z,1.70
2019-04-04T02:37:12.119Z,1.90
2019-04-04T02:39:40.559Z,1.50
2019-04-04T02:42:08.964Z,1.40
2019-04-04T02:44:37.387Z,1.70
2019-04-04T02:47:05.800Z,1.57
2019-04-04T02:49:34.233Z,1.13
2019-04-04T02:52:02.731Z,1.10
2019-04-04T02:54:31.210Z,1.27
2019-04-04T02:56:59.701Z,1.50
2019-04-04T02:59:28.135Z,1.40
2019-04-04T03:01:56.649Z,1.40
2019-04-04T03:04:25.105Z,1.50
2019-04-04T03:06:57.172Z,1.60
2019-04-04T03:09:23.680Z,1.57
2019-04-04T03:11:54.086Z,1.60
2019-04-04T03:14:22.475Z,1.30
2019-04-04T03:16:50.913Z,1.33
2019-04-04T03:19:19.326Z,1.43
2019-04-04T03:21:47.812Z,1.13
2019-04-04T03:24:16.257Z,1.20
2019-04-04T03:26:45.010Z,1.50
2019-04-04T03:29:13.437Z,1.40
2019-04-04T03:31:42.805Z,1.27
2019-04-04T03:34:12.777Z,1.40
2019-04-04T03:36:41.384Z,1.33
2019-04-04T03:39:09.818Z,1.57
2019-04-04T03:41:38.240Z,1.73
2019-04-04T03:44:06.669Z,1.30
2019-04-04T03:46:38.872Z,1.40
2019-04-04T03:49:05.226Z,1.30
2019-04-04T03:51:36.945Z,1.30
2019-04-04T03:54:05.571Z,1.33
2019-04-04T03:56:39.152Z,1.20
2019-04-04T03:59:04.202Z,1.47
2019-04-04T04:01:32.630Z,1.40
2019-04-04T04:04:01.072Z,1.47
2019-04-04T04:06:29.520Z,1.70
2019-04-04T04:08:58.017Z,1.50
2019-04-04T04:11:26.502Z,1.33
2019-04-04T04:13:54.896Z,1.57
2019-04-04T04:16:23.311Z,1.50
2019-04-04T04:18:54.046Z,1.80
2019-04-04T04:21:22.878Z,1.70
2019-04-04T04:23:51.289Z,1.60
2019-04-04T04:26:19.721Z,1.37
2019-04-04T04:28:52.203Z,1.50
2019-04-04T04:31:19.220Z,1.17
2019-04-04T04:33:47.634Z,1.40
2019-04-04T04:36:16.478Z,1.50
2019-04-04T04:38:45.252Z,1.60
2019-04-04T04:41:13.664Z,1.00
2019-04-04T04:43:42.102Z,1.10
2019-04-04T04:46:10.513Z,1.30
2019-04-04T04:48:38.964Z,1.10
2019-04-04T04:51:11.568Z,1.30
2019-04-04T04:53:37.612Z,1.50
2019-04-04T04:56:06.109Z,1.37
2019-04-04T04:58:34.535Z,1.10
2019-04-04T05:01:02.951Z,1.33
2019-04-04T05:03:31.374Z,1.30
2019-04-04T05:06:00.492Z,1.40
2019-04-04T05:08:30.941Z,1.30
2019-04-04T05:10:59.368Z,1.20
2019-04-04T05:13:28.897Z,1.40
2019-04-04T05:15:57.409Z,1.10
2019-04-04T05:18:25.834Z,1.50
2019-04-04T05:20:57.160Z,1.20
2019-04-04T05:23:24.419Z,1.30
2019-04-04T05:25:54.309Z,1.30
2019-04-04T05:28:22.936Z,1.20
2019-04-04T05:30:51.373Z,1.30
2019-04-04T05:33:22.724Z,1.53
2019-04-04T05:35:50.007Z,1.40
2019-04-04T05:38:18.436Z,1.50
2019-04-04T05:40:46.884Z,1.20
2019-04-04T05:43:15.324Z,1.40
2019-04-04T05:45:45.223Z,1.60
2019-04-04T05:48:13.976Z,1.70
2019-04-04T05:50:43.658Z,1.50
2019-04-04T05:53:12.702Z,1.33
2019-04-04T05:55:41.885Z,1.87
2019-04-04T05:58:10.956Z,1.30
2019-04-04T06:00:41.130Z,1.30
2019-04-04T06:03:09.600Z,1.43
2019-04-04T06:05:38.595Z,1.53
2019-04-04T06:08:08.090Z,2.20
2019-04-04T06:10:37.154Z,1.50
2019-04-04T06:13:05.572Z,1.80
2019-04-04T06:15:33.986Z,1.77
2019-04-04T06:18:02.427Z,1.83
2019-04-04T06:20:30.910Z,1.70
2019-04-04T06:22:59.336Z,2.20
2019-04-04T06:25:27.777Z,1.53
2019-04-04T06:27:56.168Z,1.53
2019-04-04T06:30:24.600Z,1.87
2019-04-04T06:32:53.015Z,1.80
2019-04-04T06:35:21.450Z,1.43
2019-04-04T06:37:51.434Z,1.80
2019-04-04T06:40:20.159Z,1.90
2019-04-04T06:42:48.579Z,1.40
2019-04-04T06:45:17.066Z,1.97
2019-04-04T06:47:45.555Z,2.17
2019-04-04T06:50:14.193Z,1.70
2019-04-04T06:52:42.623Z,1.60
2019-04-04T06:55:11.112Z,1.43
2019-04-04T06:57:39.539Z,2.07
2019-04-04T07:00:08.798Z,1.80
2019-04-04T07:02:37.222Z,1.70
2019-04-04T07:05:10.313Z,1.53
2019-04-04T07:07:37.528Z,2.07
2019-04-04T07:10:06.077Z,1.67
2019-04-04T07:12:37.852Z,2.53
2019-04-04T07:15:12.549Z,2.50
2019-04-04T07:17:40.262Z,1.77
2019-04-04T07:20:10.798Z,2.80
2019-04-04T07:22:39.222Z,1.90
2019-04-04T07:25:07.976Z,2.47
2019-04-04T07:27:36.418Z,1.90
2019-04-04T07:30:06.969Z,1.83
2019-04-04T07:32:35.438Z,1.87
2019-04-04T07:35:05.830Z,1.73
2019-04-04T07:37:34.237Z,1.60
2019-04-04T07:40:04.314Z,1.90
2019-04-04T07:42:32.995Z,2.40
2019-04-04T07:45:01.412Z,1.90
2019-04-04T07:47:29.828Z,1.80
2019-04-04T07:49:58.234Z,1.80
2019-04-04T07:52:26.672Z,1.73
2019-04-04T07:54:55.134Z,2.03
2019-04-04T07:57:23.523Z,1.50
2019-04-04T07:59:51.937Z,2.07
2019-04-04T08:02:20.434Z,1.40
2019-04-04T08:04:48.848Z,1.70
2019-04-04T08:07:17.343Z,1.87
2019-04-04T08:09:45.759Z,1.90
2019-04-04T08:12:14.205Z,1.70
2019-04-04T08:14:42.616Z,2.63
2019-04-04T08:17:11.054Z,2.43
2019-04-04T08:19:39.466Z,1.60
2019-04-04T08:22:07.926Z,1.67
2019-04-04T08:24:36.398Z,1.40
2019-04-04T08:27:04.908Z,1.53
2019-04-04T08:29:33.305Z,1.80
2019-04-04T08:32:01.722Z,1.70
2019-04-04T08:34:30.331Z,1.43
2019-04-04T08:36:58.895Z,1.30
2019-04-04T08:39:27.466Z,1.83
2019-04-04T08:41:55.861Z,1.13
2019-04-04T08:44:24.297Z,1.10
2019-04-04T08:46:55.489Z,1.10
2019-04-04T08:49:22.843Z,1.13
2019-04-04T08:51:51.262Z,1.20
2019-04-04T08:54:19.675Z,1.40
2019-04-04T08:56:48.182Z,1.50
2019-04-04T08:59:16.600Z,1.10
2019-04-04T09:01:45.039Z,1.00
2019-04-04T09:04:13.465Z,0.90
2019-04-04T09:06:41.867Z,0.83
2019-04-04T09:09:10.365Z,1.23
2019-04-04T09:11:38.783Z,1.03
2019-04-04T09:14:07.206Z,1.10
2019-04-04T09:16:35.726Z,1.30
2019-04-04T09:19:04.185Z,1.17
2019-04-04T09:21:32.603Z,1.17
2019-04-04T09:24:01.015Z,1.40
2019-04-04T09:26:29.425Z,0.90
2019-04-04T09:28:57.861Z,1.00
2019-04-04T09:31:26.266Z,1.47
2019-04-04T09:33:54.734Z,1.10
2019-04-04T09:36:23.148Z,1.23
2019-04-04T09:38:51.582Z,1.57
2019-04-04T09:41:20.922Z,1.23
2019-04-04T09:43:49.362Z,1.87
2019-04-04T09:46:17.763Z,1.80
2019-04-04T09:48:46.191Z,1.77
2019-04-04T09:51:14.605Z,1.30
2019-04-04T09:53:52.811Z,1.10
2019-04-04T09:56:13.178Z,1.10
2019-04-04T09:58:41.650Z,1.20
2019-04-04T10:01:10.075Z,1.37
2019-04-04T10:03:38.507Z,1.50
2019-04-04T10:06:07.066Z,1.80
2019-04-04T10:08:38.556Z,1.00
2019-04-04T10:11:05.698Z,1.70
2019-04-04T10:13:34.102Z,1.97
2019-04-04T10:16:02.550Z,1.70
2019-04-04T10:18:30.980Z,1.63
2019-04-04T10:21:11.131Z,1.20
2019-04-04T10:23:29.519Z,1.20
2019-04-04T10:25:57.958Z,1.30
2019-04-04T10:28:26.366Z,2.27
2019-04-04T10:30:54.807Z,1.50
2019-04-04T10:33:23.231Z,1.03
2019-04-04T10:35:51.648Z,1.20
2019-04-04T10:38:20.045Z,1.30
2019-04-04T10:40:48.486Z,1.93
2019-04-04T10:43:16.898Z,1.50
2019-04-04T10:45:45.302Z,1.67
2019-04-04T10:48:13.728Z,1.20
2019-04-04T10:50:42.124Z,1.30
2019-04-04T10:53:10.550Z,1.17
2019-04-04T10:55:38.971Z,1.37
2019-04-04T10:58:07.363Z,1.20
2019-04-04T11:00:35.863Z,1.30
2019-04-04T11:03:04.260Z,1.50
2019-04-04T11:05:35.176Z,1.30
2019-04-04T11:08:02.843Z,1.20
2019-04-04T11:10:31.269Z,0.93
2019-04-04T11:13:02.838Z,1.13
2019-04-04T11:15:30.787Z,1.40
2019-04-04T11:17:59.281Z,1.00
2019-04-04T11:20:27.707Z,1.83
2019-04-04T11:22:56.159Z,1.40
2019-04-04T11:25:24.556Z,1.43
2019-04-04T11:27:52.986Z,1.13
2019-04-04T11:30:21.578Z,0.80
2019-04-04T11:32:49.999Z,1.10
2019-04-04T11:35:18.397Z,0.90
2019-04-04T11:37:46.815Z,1.07
2019-04-04T11:40:15.208Z,0.83
2019-04-04T11:42:43.659Z,0.80
2019-04-04T11:45:12.190Z,0.90
2019-04-04T11:47:40.616Z,1.20
2019-04-04T11:50:09.672Z,1.00
2019-04-04T11:52:38.135Z,1.10
2019-04-04T11:55:07.094Z,0.80
2019-04-04T11:57:35.514Z,1.10
2019-04-04T12:00:06.339Z,0.80
2019-04-04T12:02:34.761Z,0.80
2019-04-04T12:05:03.258Z,0.90
2019-04-04T12:07:31.678Z,0.90
2019-04-04T12:10:07.151Z,0.83
2019-04-04T12:12:30.293Z,1.23
2019-04-04T12:14:58.712Z,1.13
2019-04-04T12:17:27.152Z,1.00
2019-04-04T12:19:55.592Z,1.40
2019-04-04T12:22:24.004Z,1.13
2019-04-04T12:24:52.404Z,1.30
2019-04-04T12:27:20.862Z,1.20
2019-04-04T12:29:49.270Z,1.30
2019-04-04T12:32:17.695Z,1.10
2019-04-04T12:34:46.132Z,1.20
2019-04-04T12:37:14.541Z,1.80
2019-04-04T12:39:44.443Z,1.53
2019-04-04T12:42:14.440Z,1.13
2019-04-04T12:44:42.866Z,1.30
2019-04-04T12:47:11.278Z,1.03
2019-04-04T12:49:39.723Z,1.00
2019-04-04T12:52:08.127Z,1.20
2019-04-04T12:54:36.574Z,1.50
2019-04-04T12:57:05.316Z,1.03
2019-04-04T12:59:33.763Z,1.30
2019-04-04T13:02:02.175Z,1.10
2019-04-04T13:04:32.002Z,1.47
2019-04-04T13:07:00.765Z,1.50
2019-04-04T13:09:29.267Z,1.60
2019-04-04T13:11:57.689Z,1.30
2019-04-04T13:14:26.111Z,1.10
2019-04-04T13:16:54.500Z,1.47
2019-04-04T13:19:22.935Z,1.33
2019-04-04T13:21:51.354Z,1.70
2019-04-04T13:24:19.762Z,1.80
2019-04-04T13:26:48.194Z,1.43
2019-04-04T13:29:16.611Z,1.43
2019-04-04T13:31:45.066Z,1.73
2019-04-04T13:34:13.483Z,1.60
2019-04-04T13:36:41.895Z,1.43
2019-04-04T13:39:10.940Z,1.30
2019-04-04T13:41:39.336Z,1.30
2019-04-04T13:44:07.838Z,1.33
2019-04-04T13:46:36.334Z,1.73
2019-04-04T13:49:04.853Z,1.70
2019-04-04T13:51:33.271Z,1.40
2019-04-04T13:54:01.699Z,2.40
2019-04-04T13:56:30.108Z,2.07
2019-04-04T13:59:01.197Z,1.70
2019-04-04T14:01:28.710Z,1.40
2019-04-04T14:03:57.151Z,1.30
2019-04-04T14:06:25.563Z,1.70
2019-04-04T14:08:53.997Z,1.40
2019-04-04T14:11:22.423Z,1.03
2019-04-04T14:13:50.866Z,1.27
2019-04-04T14:16:19.276Z,1.40
2019-04-04T14:18:47.718Z,1.50
2019-04-04T14:21:16.133Z,1.40
2019-04-04T14:23:45.375Z,1.03
2019-04-04T14:26:13.952Z,1.50
2019-04-04T14:28:42.384Z,1.43
2019-04-04T14:31:10.796Z,1.70
2019-04-04T14:33:39.204Z,1.87
2019-04-04T14:36:07.624Z,1.50
2019-04-04T14:38:36.048Z,1.63
2019-04-04T14:41:11.233Z,1.50
2019-04-04T14:43:34.666Z,1.50
2019-04-04T14:46:04.784Z,1.30
2019-04-04T14:48:37.132Z,1.70
2019-04-04T14:51:05.887Z,1.70
2019-04-04T14:53:34.473Z,1.40
2019-04-04T14:56:02.971Z,1.47
2019-04-04T14:58:33.761Z,1.90
2019-04-04T15:01:03.397Z,1.30
2019-04-04T15:03:31.848Z,1.53
2019-04-04T15:06:00.279Z,1.70
2019-04-04T15:08:28.776Z,1.67
2019-04-04T15:10:57.236Z,1.20
2019-04-04T15:13:25.655Z,1.50
2019-04-04T15:16:16.436Z,1.20
2019-04-04T15:18:45.114Z,1.00
2019-04-04T15:21:13.732Z,1.43
2019-04-04T15:23:42.208Z,1.20
2019-04-04T15:26:10.642Z,2.10
2019-04-04T15:28:39.082Z,2.00
2019-04-04T15:31:07.664Z,1.50
2019-04-04T15:33:36.179Z,2.07
2019-04-04T15:36:04.789Z,1.57
2019-04-04T15:38:33.246Z,1.33
2019-04-04T15:41:01.675Z,1.70
2019-04-04T15:43:30.111Z,1.20
2019-04-04T15:45:58.539Z,1.70
2019-04-04T15:48:26.984Z,1.73
2019-04-04T15:50:55.489Z,1.60
2019-04-04T15:53:23.991Z,1.90
2019-04-04T15:55:52.443Z,2.33
2019-04-04T15:58:20.919Z,2.03
2019-04-04T16:00:51.963Z,1.63
2019-04-04T16:03:20.396Z,1.90
2019-04-04T16:05:49.277Z,1.17
2019-04-04T16:08:17.742Z,1.33
2019-04-04T16:10:46.196Z,1.10
2019-04-04T16:13:14.682Z,1.33
2019-04-04T16:15:43.102Z,1.40
2019-04-04T16:18:11.530Z,1.50
2019-04-04T16:20:40.060Z,1.50
2019-04-04T16:23:08.492Z,1.30
2019-04-04T16:25:36.893Z,1.50
2019-04-04T16:28:05.447Z,1.70
2019-04-04T16:30:33.884Z,1.60
2019-04-04T16:33:02.340Z,1.80
2019-04-04T16:35:30.761Z,1.30
2019-04-04T16:37:59.204Z,1.90
2019-04-04T16:40:27.677Z,1.50
2019-04-04T16:42:56.262Z,1.30
2019-04-04T16:45:24.678Z,1.50
2019-04-04T16:47:53.182Z,1.70
2019-04-04T16:50:21.744Z,1.30
2019-04-04T16:52:50.134Z,1.20
2019-04-04T16:55:18.550Z,1.37
2019-04-04T16:57:46.968Z,1.40
2019-04-04T17:00:16.319Z,1.20
2019-04-04T17:02:44.752Z,1.37
2019-04-04T17:05:13.566Z,1.50
2019-04-04T17:07:42.006Z,1.50
2019-04-04T17:10:10.675Z,1.43
2019-04-04T17:12:39.083Z,1.47
2019-04-04T17:15:08.065Z,1.50
2019-04-04T17:17:36.524Z,1.67
2019-04-04T17:20:08.141Z,1.70
2019-04-04T17:22:36.580Z,1.30
2019-04-04T17:25:07.414Z,1.90
2019-04-04T17:27:37.157Z,1.50
2019-04-04T17:30:08.363Z,1.20
2019-04-04T17:32:37.428Z,1.63
2019-04-04T17:35:07.422Z,1.60
2019-04-04T17:37:36.084Z,1.30
2019-04-04T17:40:06.444Z,1.30
2019-04-04T17:42:35.325Z,1.60
2019-04-04T17:45:07.045Z,1.47
2019-04-04T17:47:35.977Z,1.57
2019-04-04T17:50:09.878Z,1.40
2019-04-04T17:52:38.287Z,1.33
2019-04-04T17:55:08.738Z,1.60
2019-04-04T17:57:37.226Z,1.63
2019-04-04T18:00:09.716Z,1.33
2019-04-04T18:02:38.218Z,1.63
2019-04-04T18:05:10.742Z,1.80
2019-04-04T18:07:39.169Z,1.50
2019-04-04T18:10:08.332Z,1.80
2019-04-04T18:12:40.358Z,1.30
2019-04-04T18:15:09.362Z,1.70
2019-04-04T18:17:37.809Z,1.30
2019-04-04T18:20:08.357Z,1.60
2019-04-04T18:22:37.078Z,1.93
2019-04-04T18:25:09.104Z,1.30
2019-04-04T18:27:37.579Z,1.40
2019-04-04T18:30:11.025Z,1.80
2019-04-04T18:32:39.460Z,1.47
2019-04-04T18:35:08.519Z,2.03
2019-04-04T18:37:37.236Z,1.33
2019-04-04T18:40:07.913Z,2.13
2019-04-04T18:42:36.376Z,1.77
2019-04-04T18:45:06.905Z,1.40
2019-04-04T18:47:35.324Z,1.60
2019-04-04T18:50:04.986Z,1.90
2019-04-04T18:52:33.389Z,2.33
2019-04-04T18:55:01.820Z,1.80
2019-04-04T18:57:30.226Z,1.73
2019-04-04T18:59:58.653Z,1.97
2019-04-04T19:02:27.104Z,1.57
2019-04-04T19:04:55.619Z,1.00
2019-04-04T19:07:24.169Z,1.33
2019-04-04T19:09:52.583Z,1.80
2019-04-04T19:12:21.068Z,1.50
2019-04-04T19:14:49.564Z,1.70
2019-04-04T19:17:18.068Z,1.63
2019-04-04T19:19:46.505Z,1.20
2019-04-04T19:22:14.998Z,1.60
2019-04-04T19:24:43.408Z,2.20
2019-04-04T19:27:11.961Z,1.00
2019-04-04T19:29:40.382Z,1.80
2019-04-04T19:32:08.865Z,1.80
2019-04-04T19:34:37.430Z,1.60
2019-04-04T19:37:05.904Z,2.37
2019-04-04T19:39:34.333Z,1.40
2019-04-04T19:42:04.934Z,1.30
2019-04-04T19:44:32.895Z,2.10
2019-04-04T19:47:01.330Z,1.73
2019-04-04T19:49:29.819Z,1.50
2019-04-04T19:51:58.239Z,1.17
2019-04-04T19:54:26.804Z,1.70
2019-04-04T19:56:55.311Z,1.83
2019-04-04T19:59:23.809Z,1.50
2019-04-04T20:01:52.261Z,1.70
2019-04-04T20:04:20.702Z,1.60
2019-04-04T20:06:49.111Z,1.50
2019-04-04T20:09:17.531Z,1.70
2019-04-04T20:11:45.971Z,1.40
2019-04-04T20:14:14.391Z,2.00
2019-04-04T20:16:42.808Z,1.40
2019-04-04T20:19:11.263Z,2.27
2019-04-04T20:21:39.661Z,2.97
2019-04-04T20:24:08.075Z,2.47
2019-04-04T20:26:36.499Z,2.67
2019-04-04T20:29:04.947Z,2.20
2019-04-04T20:31:33.354Z,2.53
2019-04-04T20:34:05.658Z,3.50
2019-04-04T20:36:32.012Z,3.10
2019-04-04T20:39:00.416Z,3.90
2019-04-04T20:41:28.915Z,1.97
2019-04-04T20:43:57.335Z,2.57
2019-04-04T20:46:25.781Z,4.17
2019-04-04T20:48:54.211Z,2.20
2019-04-04T20:51:22.635Z,2.07
2019-04-04T20:53:51.079Z,2.50
2019-04-04T20:56:19.489Z,1.70
2019-04-04T20:58:47.912Z,2.43
2019-04-04T21:01:16.344Z,2.67
2019-04-04T21:03:44.744Z,2.70
2019-04-04T21:06:13.169Z,2.20
2019-04-04T21:08:41.593Z,3.23
2019-04-04T21:11:10.025Z,2.50
2019-04-04T21:13:38.434Z,2.10
2019-04-04T21:16:06.869Z,2.67
2019-04-04T21:18:35.303Z,2.13
2019-04-04T21:21:03.732Z,2.47
2019-04-04T21:23:32.143Z,2.10
2019-04-04T21:26:00.584Z,2.00
2019-04-04T21:28:29.022Z,1.90
2019-04-04T21:30:57.499Z,1.60
2019-04-04T21:33:25.916Z,1.93
2019-04-04T21:35:54.348Z,1.60
2019-04-04T21:38:22.766Z,1.93
2019-04-04T21:40:51.174Z,1.60
2019-04-04T21:43:19.590Z,2.10
2019-04-04T21:45:48.014Z,2.07
2019-04-04T21:48:16.424Z,1.70
2019-04-04T21:50:44.855Z,1.60
2019-04-04T21:53:13.274Z,1.67
2019-04-04T21:55:41.707Z,2.30
2019-04-04T21:58:10.123Z,1.70
2019-04-04T22:00:42.043Z,1.90
2019-04-04T22:03:10.606Z,2.37
2019-04-04T22:05:39.087Z,2.20
2019-04-04T22:08:07.510Z,2.20
2019-04-04T22:10:36.297Z,3.30
2019-04-04T22:13:04.859Z,2.70
2019-04-04T22:15:33.303Z,2.30
2019-04-04T22:18:01.726Z,2.17
2019-04-04T22:20:30.125Z,1.40
2019-04-04T22:22:58.706Z,2.23
2019-04-04T22:25:27.142Z,1.77
2019-04-04T22:27:55.571Z,2.50
2019-04-04T22:30:24.062Z,2.83
2019-04-04T22:32:52.955Z,2.00
2019-04-04T22:35:21.356Z,2.00
2019-04-04T22:37:49.855Z,2.20
2019-04-04T22:40:18.265Z,1.87
2019-04-04T22:42:46.686Z,2.83
2019-04-04T22:45:15.184Z,1.97
2019-04-04T22:47:43.607Z,2.73
2019-04-04T22:50:12.193Z,2.63
2019-04-04T22:52:40.618Z,3.03
2019-04-04T22:55:09.165Z,2.30
2019-04-04T22:57:37.641Z,2.00
2019-04-04T23:00:09.455Z,2.00
2019-04-04T23:02:37.867Z,2.03
2019-04-04T23:05:06.824Z,2.00
2019-04-04T23:07:35.235Z,2.13
2019-04-04T23:10:05.325Z,1.73
2019-04-04T23:12:33.708Z,1.60
2019-04-04T23:15:02.117Z,1.90
2019-04-04T23:17:30.528Z,1.33
2019-04-04T23:19:58.940Z,1.70
2019-04-04T23:22:27.366Z,2.00
2019-04-04T23:24:55.784Z,2.00
2019-04-04T23:27:24.365Z,1.90
2019-04-04T23:29:52.776Z,2.03
2019-04-04T23:32:21.169Z,1.53
2019-04-04T23:34:49.594Z,1.50
2019-04-04T23:37:18.026Z,2.60
2019-04-04T23:39:46.445Z,2.40
2019-04-04T23:42:14.876Z,2.63
2019-04-04T23:44:43.278Z,3.23
2019-04-04T23:47:11.708Z,2.30
2019-04-04T23:49:40.160Z,1.83
2019-04-04T23:52:08.576Z,2.73
2019-04-04T23:54:36.988Z,2.80
2019-04-04T23:57:05.465Z,3.27
2019-04-04T23:59:33.893Z,1.83
